sensor_id;sensor_type;location;lat;lon;timestamp;P1;durP1;ratioP1;P2;durP2;ratioP2
74471;SDS011;62920;53.572;10.050;2023-01-06T00:02:21;7.72;;;2.30;;
74471;SDS011;62920;53.572;10.050;2023-01-06T00:04:46;10.88;;;2.10;;
74471;SDS011;62920;53.572;10.050;2023-01-06T00:07:12;5.78;;;2.15;;
74471;SDS011;62920;53.572;10.050;2023-01-06T00:09:37;6.93;;;2.25;;
74471;SDS011;62920;53.572;10.050;2023-01-06T00:12:03;12.70;;;2.47;;
74471;SDS011;62920;53.572;10.050;2023-01-06T00:14:28;12.75;;;3.20;;
74471;SDS011;62920;53.572;10.050;2023-01-06T00:16:54;12.38;;;3.00;;
74471;SDS011;62920;53.572;10.050;2023-01-06T00:19:19;8.65;;;3.30;;
74471;SDS011;62920;53.572;10.050;2023-01-06T00:21:45;12.68;;;2.80;;
74471;SDS011;62920;53.572;10.050;2023-01-06T00:24:10;9.27;;;3.08;;
74471;SDS011;62920;53.572;10.050;2023-01-06T00:26:36;10.27;;;3.45;;
74471;SDS011;62920;53.572;10.050;2023-01-06T00:29:01;7.38;;;3.05;;
74471;SDS011;62920;53.572;10.050;2023-01-06T00:31:27;10.18;;;3.65;;
74471;SDS011;62920;53.572;10.050;2023-01-06T00:33:54;9.93;;;4.05;;
74471;SDS011;62920;53.572;10.050;2023-01-06T00:36:20;8.77;;;3.85;;
74471;SDS011;62920;53.572;10.050;2023-01-06T00:38:47;9.10;;;4.00;;
74471;SDS011;62920;53.572;10.050;2023-01-06T00:41:13;11.25;;;4.20;;
74471;SDS011;62920;53.572;10.050;2023-01-06T00:43:57;8.90;;;4.43;;
74471;SDS011;62920;53.572;10.050;2023-01-06T00:46:23;13.13;;;4.47;;
74471;SDS011;62920;53.572;10.050;2023-01-06T00:48:52;11.43;;;5.30;;
74471;SDS011;62920;53.572;10.050;2023-01-06T00:51:18;14.77;;;5.10;;
74471;SDS011;62920;53.572;10.050;2023-01-06T00:53:43;12.13;;;4.95;;
74471;SDS011;62920;53.572;10.050;2023-01-06T00:56:08;11.63;;;4.55;;
74471;SDS011;62920;53.572;10.050;2023-01-06T00:58:34;13.07;;;4.80;;
74471;SDS011;62920;53.572;10.050;2023-01-06T01:01:03;14.73;;;4.72;;
74471;SDS011;62920;53.572;10.050;2023-01-06T01:03:30;10.77;;;4.35;;
74471;SDS011;62920;53.572;10.050;2023-01-06T01:06:03;13.85;;;5.07;;
74471;SDS011;62920;53.572;10.050;2023-01-06T01:08:29;13.52;;;4.65;;
74471;SDS011;62920;53.572;10.050;2023-01-06T01:10:55;13.07;;;4.53;;
74471;SDS011;62920;53.572;10.050;2023-01-06T01:13:27;15.75;;;4.78;;
74471;SDS011;62920;53.572;10.050;2023-01-06T01:15:53;13.75;;;4.90;;
74471;SDS011;62920;53.572;10.050;2023-01-06T01:18:18;15.98;;;5.45;;
74471;SDS011;62920;53.572;10.050;2023-01-06T01:20:44;12.93;;;4.30;;
74471;SDS011;62920;53.572;10.050;2023-01-06T01:25:36;10.83;;;4.13;;
74471;SDS011;62920;53.572;10.050;2023-01-06T01:28:01;12.35;;;4.70;;
74471;SDS011;62920;53.572;10.050;2023-01-06T01:30:27;9.65;;;4.03;;
74471;SDS011;62920;53.572;10.050;2023-01-06T01:32:52;10.05;;;4.60;;
74471;SDS011;62920;53.572;10.050;2023-01-06T01:35:17;16.40;;;4.80;;
74471;SDS011;62920;53.572;10.050;2023-01-06T01:37:43;10.18;;;4.10;;
74471;SDS011;62920;53.572;10.050;2023-01-06T01:40:08;9.68;;;3.97;;
74471;SDS011;62920;53.572;10.050;2023-01-06T01:42:34;12.27;;;4.57;;
74471;SDS011;62920;53.572;10.050;2023-01-06T01:47:48;10.73;;;4.72;;
74471;SDS011;62920;53.572;10.050;2023-01-06T01:52:52;16.00;;;4.80;;
74471;SDS011;62920;53.572;10.050;2023-01-06T01:55:20;10.20;;;4.57;;
74471;SDS011;62920;53.572;10.050;2023-01-06T01:57:50;11.90;;;3.63;;
74471;SDS011;62920;53.572;10.050;2023-01-06T02:00:19;10.82;;;4.05;;
74471;SDS011;62920;53.572;10.050;2023-01-06T02:02:44;10.27;;;3.88;;
74471;SDS011;62920;53.572;10.050;2023-01-06T02:05:11;8.85;;;3.90;;
74471;SDS011;62920;53.572;10.050;2023-01-06T02:07:38;10.00;;;4.40;;
74471;SDS011;62920;53.572;10.050;2023-01-06T02:12:37;10.15;;;4.45;;
74471;SDS011;62920;53.572;10.050;2023-01-06T02:15:14;10.95;;;4.20;;
74471;SDS011;62920;53.572;10.050;2023-01-06T02:33:56;8.20;;;4.40;;
74471;SDS011;62920;53.572;10.050;2023-01-06T02:42:19;13.25;;;4.43;;
74471;SDS011;62920;53.572;10.050;2023-01-06T02:45:31;9.85;;;4.35;;
74471;SDS011;62920;53.572;10.050;2023-01-06T02:48:20;8.35;;;4.00;;
74471;SDS011;62920;53.572;10.050;2023-01-06T02:55:54;10.10;;;4.32;;
74471;SDS011;62920;53.572;10.050;2023-01-06T03:00:49;12.15;;;5.07;;
74471;SDS011;62920;53.572;10.050;2023-01-06T03:03:21;8.70;;;5.28;;
74471;SDS011;62920;53.572;10.050;2023-01-06T03:05:50;10.50;;;5.05;;
74471;SDS011;62920;53.572;10.050;2023-01-06T03:08:18;15.50;;;5.97;;
74471;SDS011;62920;53.572;10.050;2023-01-06T03:10:46;10.30;;;5.40;;
74471;SDS011;62920;53.572;10.050;2023-01-06T03:13:19;11.10;;;5.18;;
74471;SDS011;62920;53.572;10.050;2023-01-06T03:15:49;9.88;;;4.90;;
74471;SDS011;62920;53.572;10.050;2023-01-06T03:18:15;10.85;;;5.65;;
74471;SDS011;62920;53.572;10.050;2023-01-06T03:20:40;11.68;;;4.93;;
74471;SDS011;62920;53.572;10.050;2023-01-06T03:23:05;11.18;;;5.20;;
74471;SDS011;62920;53.572;10.050;2023-01-06T03:25:31;10.40;;;5.70;;
74471;SDS011;62920;53.572;10.050;2023-01-06T03:27:57;13.60;;;5.95;;
74471;SDS011;62920;53.572;10.050;2023-01-06T03:30:22;9.43;;;5.22;;
74471;SDS011;62920;53.572;10.050;2023-01-06T03:38:13;16.38;;;6.45;;
74471;SDS011;62920;53.572;10.050;2023-01-06T03:43:23;11.90;;;5.63;;
74471;SDS011;62920;53.572;10.050;2023-01-06T03:51:47;15.80;;;6.25;;
74471;SDS011;62920;53.572;10.050;2023-01-06T03:54:19;15.95;;;6.72;;
74471;SDS011;62920;53.572;10.050;2023-01-06T03:56:50;15.63;;;6.25;;
74471;SDS011;62920;53.572;10.050;2023-01-06T03:59:20;13.93;;;6.95;;
74471;SDS011;62920;53.572;10.050;2023-01-06T04:01:50;13.18;;;6.38;;
74471;SDS011;62920;53.572;10.050;2023-01-06T04:04:16;12.68;;;6.68;;
74471;SDS011;62920;53.572;10.050;2023-01-06T04:06:42;16.02;;;6.18;;
74471;SDS011;62920;53.572;10.050;2023-01-06T04:09:08;15.55;;;6.25;;
74471;SDS011;62920;53.572;10.050;2023-01-06T04:11:33;15.48;;;7.07;;
74471;SDS011;62920;53.572;10.050;2023-01-06T04:14:17;15.65;;;6.43;;
74471;SDS011;62920;53.572;10.050;2023-01-06T04:16:42;15.77;;;6.97;;
74471;SDS011;62920;53.572;10.050;2023-01-06T04:19:08;15.63;;;6.43;;
74471;SDS011;62920;53.572;10.050;2023-01-06T04:21:33;13.90;;;6.15;;
74471;SDS011;62920;53.572;10.050;2023-01-06T04:23:59;15.00;;;7.05;;
74471;SDS011;62920;53.572;10.050;2023-01-06T04:26:24;16.23;;;6.30;;
74471;SDS011;62920;53.572;10.050;2023-01-06T04:28:49;15.55;;;7.57;;
74471;SDS011;62920;53.572;10.050;2023-01-06T04:31:15;15.32;;;6.97;;
74471;SDS011;62920;53.572;10.050;2023-01-06T04:33:40;15.65;;;6.63;;
74471;SDS011;62920;53.572;10.050;2023-01-06T04:36:06;16.70;;;6.63;;
74471;SDS011;62920;53.572;10.050;2023-01-06T04:38:32;14.88;;;7.38;;
74471;SDS011;62920;53.572;10.050;2023-01-06T04:40:58;15.73;;;7.05;;
74471;SDS011;62920;53.572;10.050;2023-01-06T04:43:23;17.13;;;7.35;;
74471;SDS011;62920;53.572;10.050;2023-01-06T04:45:49;16.98;;;7.10;;
74471;SDS011;62920;53.572;10.050;2023-01-06T04:48:14;16.60;;;6.95;;
74471;SDS011;62920;53.572;10.050;2023-01-06T04:50:39;15.77;;;6.80;;
74471;SDS011;62920;53.572;10.050;2023-01-06T04:53:05;15.88;;;8.27;;
74471;SDS011;62920;53.572;10.050;2023-01-06T04:55:31;17.20;;;7.35;;
74471;SDS011;62920;53.572;10.050;2023-01-06T04:57:57;18.30;;;7.25;;
74471;SDS011;62920;53.572;10.050;2023-01-06T05:00:22;17.65;;;7.90;;
74471;SDS011;62920;53.572;10.050;2023-01-06T05:02:48;17.35;;;7.88;;
74471;SDS011;62920;53.572;10.050;2023-01-06T05:05:14;16.10;;;7.68;;
74471;SDS011;62920;53.572;10.050;2023-01-06T05:07:40;18.80;;;8.27;;
74471;SDS011;62920;53.572;10.050;2023-01-06T05:10:06;18.73;;;8.68;;
74471;SDS011;62920;53.572;10.050;2023-01-06T05:12:32;19.65;;;8.93;;
74471;SDS011;62920;53.572;10.050;2023-01-06T05:14:58;18.85;;;8.90;;
74471;SDS011;62920;53.572;10.050;2023-01-06T05:17:24;18.27;;;8.65;;
74471;SDS011;62920;53.572;10.050;2023-01-06T05:19:49;21.92;;;9.20;;
74471;SDS011;62920;53.572;10.050;2023-01-06T05:22:15;18.55;;;8.18;;
74471;SDS011;62920;53.572;10.050;2023-01-06T05:24:40;15.25;;;8.52;;
74471;SDS011;62920;53.572;10.050;2023-01-06T05:27:06;21.58;;;9.60;;
74471;SDS011;62920;53.572;10.050;2023-01-06T05:29:31;22.88;;;8.80;;
74471;SDS011;62920;53.572;10.050;2023-01-06T05:31:57;16.63;;;8.38;;
74471;SDS011;62920;53.572;10.050;2023-01-06T05:34:22;20.90;;;8.65;;
74471;SDS011;62920;53.572;10.050;2023-01-06T05:36:48;24.38;;;9.05;;
74471;SDS011;62920;53.572;10.050;2023-01-06T05:39:13;26.23;;;8.80;;
74471;SDS011;62920;53.572;10.050;2023-01-06T05:41:38;20.10;;;8.77;;
74471;SDS011;62920;53.572;10.050;2023-01-06T05:44:04;21.83;;;8.32;;
74471;SDS011;62920;53.572;10.050;2023-01-06T05:46:29;16.80;;;8.32;;
74471;SDS011;62920;53.572;10.050;2023-01-06T05:48:55;16.13;;;8.43;;
74471;SDS011;62920;53.572;10.050;2023-01-06T05:51:20;19.42;;;8.25;;
74471;SDS011;62920;53.572;10.050;2023-01-06T05:53:46;19.27;;;8.43;;
74471;SDS011;62920;53.572;10.050;2023-01-06T05:56:13;17.25;;;8.20;;
74471;SDS011;62920;53.572;10.050;2023-01-06T05:58:42;19.40;;;8.23;;
74471;SDS011;62920;53.572;10.050;2023-01-06T06:01:14;15.35;;;7.65;;
74471;SDS011;62920;53.572;10.050;2023-01-06T06:03:41;17.83;;;8.40;;
74471;SDS011;62920;53.572;10.050;2023-01-06T06:06:06;13.77;;;7.85;;
74471;SDS011;62920;53.572;10.050;2023-01-06T06:08:32;13.63;;;7.32;;
74471;SDS011;62920;53.572;10.050;2023-01-06T06:11:01;13.45;;;7.18;;
74471;SDS011;62920;53.572;10.050;2023-01-06T06:13:28;18.48;;;7.68;;
74471;SDS011;62920;53.572;10.050;2023-01-06T06:16:01;12.98;;;7.57;;
74471;SDS011;62920;53.572;10.050;2023-01-06T06:18:30;14.63;;;7.78;;
74471;SDS011;62920;53.572;10.050;2023-01-06T06:21:00;19.30;;;8.85;;
74471;SDS011;62920;53.572;10.050;2023-01-06T06:23:26;14.90;;;7.90;;
74471;SDS011;62920;53.572;10.050;2023-01-06T06:25:52;13.45;;;8.25;;
74471;SDS011;62920;53.572;10.050;2023-01-06T06:28:17;17.90;;;8.23;;
74471;SDS011;62920;53.572;10.050;2023-01-06T06:30:42;14.68;;;8.65;;
74471;SDS011;62920;53.572;10.050;2023-01-06T06:33:08;16.90;;;8.63;;
74471;SDS011;62920;53.572;10.050;2023-01-06T06:35:33;16.23;;;8.60;;
74471;SDS011;62920;53.572;10.050;2023-01-06T06:37:58;19.25;;;9.18;;
74471;SDS011;62920;53.572;10.050;2023-01-06T06:40:24;18.98;;;9.57;;
74471;SDS011;62920;53.572;10.050;2023-01-06T06:42:50;16.25;;;8.60;;
74471;SDS011;62920;53.572;10.050;2023-01-06T06:45:16;17.88;;;9.98;;
74471;SDS011;62920;53.572;10.050;2023-01-06T06:47:42;15.40;;;9.20;;
74471;SDS011;62920;53.572;10.050;2023-01-06T06:50:09;20.08;;;9.50;;
74471;SDS011;62920;53.572;10.050;2023-01-06T06:52:34;15.98;;;10.00;;
74471;SDS011;62920;53.572;10.050;2023-01-06T06:55:00;15.20;;;9.70;;
74471;SDS011;62920;53.572;10.050;2023-01-06T06:57:25;16.88;;;9.38;;
74471;SDS011;62920;53.572;10.050;2023-01-06T06:59:50;16.60;;;9.18;;
74471;SDS011;62920;53.572;10.050;2023-01-06T07:02:16;16.98;;;9.32;;
74471;SDS011;62920;53.572;10.050;2023-01-06T07:04:41;16.73;;;8.88;;
74471;SDS011;62920;53.572;10.050;2023-01-06T07:07:06;20.20;;;9.68;;
74471;SDS011;62920;53.572;10.050;2023-01-06T07:09:32;15.60;;;8.85;;
74471;SDS011;62920;53.572;10.050;2023-01-06T07:11:57;17.25;;;9.13;;
74471;SDS011;62920;53.572;10.050;2023-01-06T07:14:23;16.90;;;9.38;;
74471;SDS011;62920;53.572;10.050;2023-01-06T07:16:48;14.57;;;7.75;;
74471;SDS011;62920;53.572;10.050;2023-01-06T07:19:13;14.82;;;8.30;;
74471;SDS011;62920;53.572;10.050;2023-01-06T07:21:39;14.65;;;7.50;;
74471;SDS011;62920;53.572;10.050;2023-01-06T07:24:04;15.75;;;7.47;;
74471;SDS011;62920;53.572;10.050;2023-01-06T07:26:29;14.20;;;7.63;;
74471;SDS011;62920;53.572;10.050;2023-01-06T07:28:55;13.63;;;7.28;;
74471;SDS011;62920;53.572;10.050;2023-01-06T07:31:21;13.98;;;7.95;;
74471;SDS011;62920;53.572;10.050;2023-01-06T07:33:47;15.32;;;8.40;;
74471;SDS011;62920;53.572;10.050;2023-01-06T07:36:12;14.30;;;7.60;;
74471;SDS011;62920;53.572;10.050;2023-01-06T07:38:37;12.25;;;7.80;;
74471;SDS011;62920;53.572;10.050;2023-01-06T07:41:03;13.25;;;7.43;;
74471;SDS011;62920;53.572;10.050;2023-01-06T07:43:28;14.55;;;7.72;;
74471;SDS011;62920;53.572;10.050;2023-01-06T07:45:54;16.60;;;8.27;;
74471;SDS011;62920;53.572;10.050;2023-01-06T07:48:19;14.35;;;7.88;;
74471;SDS011;62920;53.572;10.050;2023-01-06T07:50:44;13.20;;;7.55;;
74471;SDS011;62920;53.572;10.050;2023-01-06T07:53:10;15.77;;;8.40;;
74471;SDS011;62920;53.572;10.050;2023-01-06T07:55:36;14.20;;;7.30;;
74471;SDS011;62920;53.572;10.050;2023-01-06T07:58:05;13.25;;;7.93;;
74471;SDS011;62920;53.572;10.050;2023-01-06T08:00:33;15.13;;;8.15;;
74471;SDS011;62920;53.572;10.050;2023-01-06T08:03:01;14.73;;;8.20;;
74471;SDS011;62920;53.572;10.050;2023-01-06T08:05:28;15.13;;;8.77;;
74471;SDS011;62920;53.572;10.050;2023-01-06T08:07:54;14.07;;;7.63;;
74471;SDS011;62920;53.572;10.050;2023-01-06T08:10:19;14.82;;;8.32;;
74471;SDS011;62920;53.572;10.050;2023-01-06T08:12:44;13.35;;;8.20;;
74471;SDS011;62920;53.572;10.050;2023-01-06T08:15:10;13.57;;;7.25;;
74471;SDS011;62920;53.572;10.050;2023-01-06T08:17:35;14.93;;;7.65;;
74471;SDS011;62920;53.572;10.050;2023-01-06T08:20:01;13.63;;;7.95;;
74471;SDS011;62920;53.572;10.050;2023-01-06T08:22:26;12.02;;;7.15;;
74471;SDS011;62920;53.572;10.050;2023-01-06T08:24:51;11.50;;;7.25;;
74471;SDS011;62920;53.572;10.050;2023-01-06T08:27:17;12.80;;;6.78;;
74471;SDS011;62920;53.572;10.050;2023-01-06T08:29:44;12.75;;;6.90;;
74471;SDS011;62920;53.572;10.050;2023-01-06T08:32:10;9.10;;;5.63;;
74471;SDS011;62920;53.572;10.050;2023-01-06T08:34:35;11.65;;;6.15;;
74471;SDS011;62920;53.572;10.050;2023-01-06T08:37:00;10.27;;;5.32;;
74471;SDS011;62920;53.572;10.050;2023-01-06T08:39:26;8.82;;;5.32;;
74471;SDS011;62920;53.572;10.050;2023-01-06T08:41:51;9.00;;;5.30;;
74471;SDS011;62920;53.572;10.050;2023-01-06T08:46:43;9.27;;;5.03;;
74471;SDS011;62920;53.572;10.050;2023-01-06T08:49:08;9.27;;;4.22;;
74471;SDS011;62920;53.572;10.050;2023-01-06T08:51:34;8.10;;;4.63;;
74471;SDS011;62920;53.572;10.050;2023-01-06T08:53:59;8.88;;;4.50;;
74471;SDS011;62920;53.572;10.050;2023-01-06T08:56:26;7.38;;;4.32;;
74471;SDS011;62920;53.572;10.050;2023-01-06T08:58:54;8.52;;;3.90;;
74471;SDS011;62920;53.572;10.050;2023-01-06T09:01:22;7.72;;;4.20;;
74471;SDS011;62920;53.572;10.050;2023-01-06T09:03:49;6.18;;;3.72;;
74471;SDS011;62920;53.572;10.050;2023-01-06T09:06:16;8.07;;;4.60;;
74471;SDS011;62920;53.572;10.050;2023-01-06T09:08:41;7.43;;;4.45;;
74471;SDS011;62920;53.572;10.050;2023-01-06T09:11:07;8.70;;;4.25;;
74471;SDS011;62920;53.572;10.050;2023-01-06T09:13:33;6.80;;;3.95;;
74471;SDS011;62920;53.572;10.050;2023-01-06T09:15:59;6.78;;;3.72;;
74471;SDS011;62920;53.572;10.050;2023-01-06T09:18:26;6.95;;;3.80;;
74471;SDS011;62920;53.572;10.050;2023-01-06T09:20:51;6.88;;;3.78;;
74471;SDS011;62920;53.572;10.050;2023-01-06T09:23:17;8.45;;;3.95;;
74471;SDS011;62920;53.572;10.050;2023-01-06T09:25:43;6.00;;;3.40;;
74471;SDS011;62920;53.572;10.050;2023-01-06T09:28:08;7.03;;;3.60;;
74471;SDS011;62920;53.572;10.050;2023-01-06T09:30:34;6.93;;;3.42;;
74471;SDS011;62920;53.572;10.050;2023-01-06T09:33:00;6.45;;;3.15;;
74471;SDS011;62920;53.572;10.050;2023-01-06T09:35:25;5.72;;;3.10;;
74471;SDS011;62920;53.572;10.050;2023-01-06T09:37:51;6.18;;;2.92;;
74471;SDS011;62920;53.572;10.050;2023-01-06T09:40:16;4.15;;;2.72;;
74471;SDS011;62920;53.572;10.050;2023-01-06T09:42:51;7.20;;;2.75;;
74471;SDS011;62920;53.572;10.050;2023-01-06T09:45:41;6.95;;;3.13;;
74471;SDS011;62920;53.572;10.050;2023-01-06T09:48:12;7.38;;;3.35;;
74471;SDS011;62920;53.572;10.050;2023-01-06T09:50:44;5.10;;;2.90;;
74471;SDS011;62920;53.572;10.050;2023-01-06T09:53:20;7.40;;;3.08;;
74471;SDS011;62920;53.572;10.050;2023-01-06T09:55:49;6.13;;;2.90;;
74471;SDS011;62920;53.572;10.050;2023-01-06T10:00:51;4.57;;;2.70;;
74471;SDS011;62920;53.572;10.050;2023-01-06T10:03:22;7.93;;;2.67;;
74471;SDS011;62920;53.572;10.050;2023-01-06T10:11:12;4.05;;;1.83;;
74471;SDS011;62920;53.572;10.050;2023-01-06T10:30:22;6.47;;;3.05;;
74471;SDS011;62920;53.572;10.050;2023-01-06T10:32:51;6.28;;;2.50;;
74471;SDS011;62920;53.572;10.050;2023-01-06T10:35:17;4.43;;;2.28;;
74471;SDS011;62920;53.572;10.050;2023-01-06T10:37:46;4.65;;;2.33;;
74471;SDS011;62920;53.572;10.050;2023-01-06T10:42:54;5.10;;;2.42;;
74471;SDS011;62920;53.572;10.050;2023-01-06T10:45:35;5.00;;;2.67;;
74471;SDS011;62920;53.572;10.050;2023-01-06T10:48:02;3.63;;;2.08;;
74471;SDS011;62920;53.572;10.050;2023-01-06T10:50:28;3.80;;;2.50;;
74471;SDS011;62920;53.572;10.050;2023-01-06T10:52:54;6.93;;;2.75;;
74471;SDS011;62920;53.572;10.050;2023-01-06T10:57:53;4.45;;;2.15;;
74471;SDS011;62920;53.572;10.050;2023-01-06T11:00:22;5.28;;;2.60;;
74471;SDS011;62920;53.572;10.050;2023-01-06T11:05:18;4.13;;;2.38;;
74471;SDS011;62920;53.572;10.050;2023-01-06T11:07:48;4.18;;;2.17;;
74471;SDS011;62920;53.572;10.050;2023-01-06T11:10:23;5.10;;;2.40;;
74471;SDS011;62920;53.572;10.050;2023-01-06T11:12:51;4.68;;;2.38;;
74471;SDS011;62920;53.572;10.050;2023-01-06T11:15:20;4.28;;;2.38;;
74471;SDS011;62920;53.572;10.050;2023-01-06T11:17:46;5.55;;;2.35;;
74471;SDS011;62920;53.572;10.050;2023-01-06T11:22:38;3.33;;;1.70;;
74471;SDS011;62920;53.572;10.050;2023-01-06T11:25:21;3.20;;;1.58;;
74471;SDS011;62920;53.572;10.050;2023-01-06T11:30:38;4.25;;;1.27;;
74471;SDS011;62920;53.572;10.050;2023-01-06T11:33:12;3.75;;;1.75;;
74471;SDS011;62920;53.572;10.050;2023-01-06T11:35:39;2.75;;;1.00;;
74471;SDS011;62920;53.572;10.050;2023-01-06T11:38:09;2.88;;;1.10;;
74471;SDS011;62920;53.572;10.050;2023-01-06T11:40:37;2.33;;;0.98;;
74471;SDS011;62920;53.572;10.050;2023-01-06T11:43:05;2.90;;;1.08;;
74471;SDS011;62920;53.572;10.050;2023-01-06T11:45:35;3.50;;;0.70;;
74471;SDS011;62920;53.572;10.050;2023-01-06T11:48:03;1.92;;;0.60;;
74471;SDS011;62920;53.572;10.050;2023-01-06T11:50:31;4.10;;;0.80;;
74471;SDS011;62920;53.572;10.050;2023-01-06T11:52:57;3.33;;;0.70;;
74471;SDS011;62920;53.572;10.050;2023-01-06T11:55:24;2.38;;;0.60;;
74471;SDS011;62920;53.572;10.050;2023-01-06T12:03:27;2.47;;;0.70;;
74471;SDS011;62920;53.572;10.050;2023-01-06T12:08:39;2.60;;;0.50;;
74471;SDS011;62920;53.572;10.050;2023-01-06T12:11:18;4.35;;;0.73;;
74471;SDS011;62920;53.572;10.050;2023-01-06T12:13:45;2.15;;;0.55;;
74471;SDS011;62920;53.572;10.050;2023-01-06T12:16:20;4.85;;;0.60;;
74471;SDS011;62920;53.572;10.050;2023-01-06T12:18:53;3.45;;;0.90;;
74471;SDS011;62920;53.572;10.050;2023-01-06T12:21:24;2.60;;;0.73;;
74471;SDS011;62920;53.572;10.050;2023-01-06T12:23:52;3.90;;;0.85;;
74471;SDS011;62920;53.572;10.050;2023-01-06T12:26:20;5.68;;;0.70;;
74471;SDS011;62920;53.572;10.050;2023-01-06T12:28:46;5.20;;;0.77;;
74471;SDS011;62920;53.572;10.050;2023-01-06T12:31:25;2.33;;;0.65;;
74471;SDS011;62920;53.572;10.050;2023-01-06T12:36:41;6.40;;;0.55;;
74471;SDS011;62920;53.572;10.050;2023-01-06T12:39:11;6.22;;;0.93;;
74471;SDS011;62920;53.572;10.050;2023-01-06T12:41:42;7.45;;;0.98;;
74471;SDS011;62920;53.572;10.050;2023-01-06T12:46:58;4.43;;;0.82;;
74471;SDS011;62920;53.572;10.050;2023-01-06T12:49:36;4.60;;;1.33;;
74471;SDS011;62920;53.572;10.050;2023-01-06T12:52:06;4.40;;;0.55;;
74471;SDS011;62920;53.572;10.050;2023-01-06T12:54:34;5.38;;;1.15;;
74471;SDS011;62920;53.572;10.050;2023-01-06T13:16:04;1.83;;;0.60;;
74471;SDS011;62920;53.572;10.050;2023-01-06T13:18:49;4.88;;;0.60;;
74471;SDS011;62920;53.572;10.050;2023-01-06T13:21:22;4.00;;;0.90;;
74471;SDS011;62920;53.572;10.050;2023-01-06T13:34:32;6.30;;;0.68;;
74471;SDS011;62920;53.572;10.050;2023-01-06T13:40:09;6.88;;;0.75;;
74471;SDS011;62920;53.572;10.050;2023-01-06T13:42:38;7.63;;;1.55;;
74471;SDS011;62920;53.572;10.050;2023-01-06T13:45:09;7.70;;;0.95;;
74471;SDS011;62920;53.572;10.050;2023-01-06T13:47:38;9.95;;;1.30;;
74471;SDS011;62920;53.572;10.050;2023-01-06T13:50:05;4.15;;;0.90;;
74471;SDS011;62920;53.572;10.050;2023-01-06T13:52:31;5.90;;;0.90;;
74471;SDS011;62920;53.572;10.050;2023-01-06T13:54:59;5.63;;;0.85;;
74471;SDS011;62920;53.572;10.050;2023-01-06T13:57:45;4.05;;;0.75;;
74471;SDS011;62920;53.572;10.050;2023-01-06T14:02:57;7.82;;;1.13;;
74471;SDS011;62920;53.572;10.050;2023-01-06T14:07:56;3.78;;;0.60;;
74471;SDS011;62920;53.572;10.050;2023-01-06T14:13:05;3.40;;;0.75;;
74471;SDS011;62920;53.572;10.050;2023-01-06T14:15:49;5.88;;;1.23;;
74471;SDS011;62920;53.572;10.050;2023-01-06T14:18:33;7.63;;;0.80;;
74471;SDS011;62920;53.572;10.050;2023-01-06T14:21:03;6.80;;;0.90;;
74471;SDS011;62920;53.572;10.050;2023-01-06T14:23:31;4.55;;;1.17;;
74471;SDS011;62920;53.572;10.050;2023-01-06T14:25:58;6.18;;;1.05;;
74471;SDS011;62920;53.572;10.050;2023-01-06T14:28:25;3.42;;;0.80;;
74471;SDS011;62920;53.572;10.050;2023-01-06T14:31:38;6.43;;;0.90;;
74471;SDS011;62920;53.572;10.050;2023-01-06T14:34:09;6.30;;;1.05;;
74471;SDS011;62920;53.572;10.050;2023-01-06T14:36:35;4.70;;;0.88;;
74471;SDS011;62920;53.572;10.050;2023-01-06T14:39:02;3.30;;;0.90;;
74471;SDS011;62920;53.572;10.050;2023-01-06T14:44:15;6.93;;;0.85;;
74471;SDS011;62920;53.572;10.050;2023-01-06T14:46:49;4.75;;;0.82;;
74471;SDS011;62920;53.572;10.050;2023-01-06T14:49:28;4.30;;;0.73;;
74471;SDS011;62920;53.572;10.050;2023-01-06T14:51:56;3.08;;;0.77;;
74471;SDS011;62920;53.572;10.050;2023-01-06T14:54:27;3.78;;;0.60;;
74471;SDS011;62920;53.572;10.050;2023-01-06T14:56:56;4.22;;;0.70;;
74471;SDS011;62920;53.572;10.050;2023-01-06T14:59:23;8.23;;;1.00;;
74471;SDS011;62920;53.572;10.050;2023-01-06T15:04:31;4.20;;;0.70;;
74471;SDS011;62920;53.572;10.050;2023-01-06T15:07:03;6.45;;;1.38;;
74471;SDS011;62920;53.572;10.050;2023-01-06T15:09:40;7.32;;;0.98;;
74471;SDS011;62920;53.572;10.050;2023-01-06T15:14:46;4.50;;;0.88;;
74471;SDS011;62920;53.572;10.050;2023-01-06T15:17:12;6.35;;;1.23;;
74471;SDS011;62920;53.572;10.050;2023-01-06T15:19:40;6.93;;;0.85;;
74471;SDS011;62920;53.572;10.050;2023-01-06T15:22:07;3.78;;;0.90;;
74471;SDS011;62920;53.572;10.050;2023-01-06T15:24:32;4.03;;;0.70;;
74471;SDS011;62920;53.572;10.050;2023-01-06T15:27:04;3.42;;;0.70;;
74471;SDS011;62920;53.572;10.050;2023-01-06T15:29:31;6.35;;;1.13;;
74471;SDS011;62920;53.572;10.050;2023-01-06T15:31:56;6.25;;;0.68;;
74471;SDS011;62920;53.572;10.050;2023-01-06T15:34:35;6.57;;;0.90;;
74471;SDS011;62920;53.572;10.050;2023-01-06T15:37:04;6.47;;;0.85;;
74471;SDS011;62920;53.572;10.050;2023-01-06T15:39:31;6.00;;;1.20;;
74471;SDS011;62920;53.572;10.050;2023-01-06T15:41:57;4.95;;;0.70;;
74471;SDS011;62920;53.572;10.050;2023-01-06T15:47:02;5.38;;;1.00;;
74471;SDS011;62920;53.572;10.050;2023-01-06T15:49:36;2.53;;;0.70;;
74471;SDS011;62920;53.572;10.050;2023-01-06T15:52:04;6.00;;;0.88;;
74471;SDS011;62920;53.572;10.050;2023-01-06T15:54:31;3.38;;;0.73;;
74471;SDS011;62920;53.572;10.050;2023-01-06T15:56:59;7.53;;;1.05;;
74471;SDS011;62920;53.572;10.050;2023-01-06T15:59:25;6.50;;;1.13;;
74471;SDS011;62920;53.572;10.050;2023-01-06T16:01:51;8.63;;;1.25;;
74471;SDS011;62920;53.572;10.050;2023-01-06T16:04:18;6.22;;;2.00;;
74471;SDS011;62920;53.572;10.050;2023-01-06T16:06:44;6.00;;;1.10;;
74471;SDS011;62920;53.572;10.050;2023-01-06T16:14:38;7.93;;;1.10;;
74471;SDS011;62920;53.572;10.050;2023-01-06T16:19:52;5.28;;;0.80;;
74471;SDS011;62920;53.572;10.050;2023-01-06T16:22:45;8.15;;;1.13;;
74471;SDS011;62920;53.572;10.050;2023-01-06T16:25:31;5.25;;;1.20;;
74471;SDS011;62920;53.572;10.050;2023-01-06T16:27:59;10.88;;;2.30;;
74471;SDS011;62920;53.572;10.050;2023-01-06T16:32:57;6.80;;;1.27;;
74471;SDS011;62920;53.572;10.050;2023-01-06T16:35:30;5.07;;;1.52;;
74471;SDS011;62920;53.572;10.050;2023-01-06T16:37:57;6.75;;;0.98;;
74471;SDS011;62920;53.572;10.050;2023-01-06T16:40:23;6.22;;;1.17;;
74471;SDS011;62920;53.572;10.050;2023-01-06T16:42:55;9.02;;;1.25;;
74471;SDS011;62920;53.572;10.050;2023-01-06T16:45:31;7.15;;;1.13;;
74471;SDS011;62920;53.572;10.050;2023-01-06T16:48:09;5.75;;;1.25;;
74471;SDS011;62920;53.572;10.050;2023-01-06T16:50:39;6.30;;;1.40;;
74471;SDS011;62920;53.572;10.050;2023-01-06T16:55:42;7.03;;;1.10;;
74471;SDS011;62920;53.572;10.050;2023-01-06T16:58:21;7.18;;;1.13;;
74471;SDS011;62920;53.572;10.050;2023-01-06T17:00:48;9.27;;;1.50;;
74471;SDS011;62920;53.572;10.050;2023-01-06T17:03:22;6.13;;;1.20;;
74471;SDS011;62920;53.572;10.050;2023-01-06T17:05:54;8.65;;;1.52;;
74471;SDS011;62920;53.572;10.050;2023-01-06T17:08:27;4.47;;;1.00;;
74471;SDS011;62920;53.572;10.050;2023-01-06T17:10:58;8.05;;;1.25;;
74471;SDS011;62920;53.572;10.050;2023-01-06T17:13:25;6.45;;;1.30;;
74471;SDS011;62920;53.572;10.050;2023-01-06T17:18:35;6.80;;;1.17;;
74471;SDS011;62920;53.572;10.050;2023-01-06T17:21:09;6.03;;;0.93;;
74471;SDS011;62920;53.572;10.050;2023-01-06T17:24:01;6.60;;;1.60;;
74471;SDS011;62920;53.572;10.050;2023-01-06T17:26:22;9.10;;;1.10;;
74471;SDS011;62920;53.572;10.050;2023-01-06T17:28:48;10.73;;;1.38;;
74471;SDS011;62920;53.572;10.050;2023-01-06T17:31:16;6.00;;;1.00;;